createdAt,value
2018-11-07T00:02:17.908Z,12.46
2018-11-07T00:04:46.174Z,12.51
2018-11-07T00:07:14.387Z,12.69
2018-11-07T00:09:42.625Z,12.89
2018-11-07T00:12:10.904Z,12.95
2018-11-07T00:14:39.420Z,13.03
2018-11-07T00:17:07.447Z,13.19
2018-11-07T00:19:35.965Z,13.40
2018-11-07T00:22:04.415Z,13.44
2018-11-07T00:24:32.123Z,13.47
2018-11-07T00:26:59.919Z,13.54
2018-11-07T00:29:27.700Z,13.64
2018-11-07T00:31:55.524Z,13.63
2018-11-07T00:34:23.232Z,13.67
2018-11-07T00:36:51.039Z,13.51
2018-11-07T00:39:18.829Z,13.36
2018-11-07T00:41:46.590Z,13.17
2018-11-07T00:44:14.351Z,13.21
2018-11-07T00:46:42.120Z,13.36
2018-11-07T00:49:09.895Z,13.47
2018-11-07T00:51:37.677Z,13.50
2018-11-07T00:54:05.483Z,13.59
2018-11-07T00:56:33.231Z,13.67
2018-11-07T00:59:00.929Z,13.66
2018-11-07T01:01:28.635Z,13.62
2018-11-07T01:03:56.393Z,13.55
2018-11-07T01:06:24.192Z,13.34
2018-11-07T01:08:51.927Z,13.24
2018-11-07T01:11:19.703Z,13.19
2018-11-07T01:13:47.395Z,13.32
2018-11-07T01:16:15.143Z,13.39
2018-11-07T01:18:42.878Z,13.35
2018-11-07T01:21:10.642Z,13.43
2018-11-07T01:23:38.391Z,13.38
2018-11-07T01:26:06.178Z,13.50
2018-11-07T01:28:33.947Z,13.43
2018-11-07T01:31:01.672Z,13.56
2018-11-07T01:33:29.399Z,13.62
2018-11-07T01:35:57.187Z,13.61
2018-11-07T01:38:24.938Z,13.61
2018-11-07T01:40:52.719Z,13.68
2018-11-07T01:43:20.528Z,13.74
2018-11-07T01:45:48.351Z,13.69
2018-11-07T01:48:16.070Z,13.68
2018-11-07T01:50:43.836Z,13.53
2018-11-07T01:53:11.579Z,13.09
2018-11-07T01:55:39.386Z,13.23
2018-11-07T01:58:07.163Z,13.16
2018-11-07T02:00:34.942Z,12.72
2018-11-07T02:03:02.679Z,12.24
2018-11-07T02:05:30.490Z,12.34
2018-11-07T02:07:58.308Z,12.38
2018-11-07T02:10:26.036Z,11.99
2018-11-07T02:12:53.840Z,11.93
2018-11-07T02:15:21.754Z,12.29
2018-11-07T02:17:50.113Z,12.29
2018-11-07T02:20:18.335Z,12.00
2018-11-07T02:22:46.072Z,12.00
2018-11-07T02:25:13.811Z,12.08
2018-11-07T02:27:41.613Z,12.16
2018-11-07T02:30:11.371Z,12.19
2018-11-07T02:32:39.151Z,12.24
2018-11-07T02:35:07.044Z,12.02
2018-11-07T02:37:34.787Z,12.24
2018-11-07T02:40:02.607Z,12.26
2018-11-07T02:42:30.400Z,12.38
2018-11-07T02:44:58.188Z,12.30
2018-11-07T02:47:25.939Z,12.41
2018-11-07T02:49:53.704Z,12.36
2018-11-07T02:52:21.524Z,12.27
2018-11-07T02:54:49.280Z,12.66
2018-11-07T02:57:17.230Z,12.78
2018-11-07T02:59:45.587Z,12.73
2018-11-07T03:02:13.932Z,12.89
2018-11-07T03:04:42.387Z,12.92
2018-11-07T03:07:10.634Z,12.99
2018-11-07T03:09:39.144Z,13.15
2018-11-07T03:12:06.955Z,13.21
2018-11-07T03:14:34.661Z,13.26
2018-11-07T03:17:02.442Z,13.41
2018-11-07T03:19:30.180Z,13.55
2018-11-07T03:21:57.880Z,13.61
2018-11-07T03:24:25.679Z,13.67
2018-11-07T03:26:53.420Z,13.61
2018-11-07T03:29:21.103Z,13.47
2018-11-07T03:31:48.887Z,13.49
2018-11-07T03:34:16.660Z,13.30
2018-11-07T03:36:44.452Z,13.36
2018-11-07T03:39:12.916Z,13.47
2018-11-07T03:41:41.195Z,13.66
2018-11-07T03:44:09.907Z,13.78
2018-11-07T03:46:38.333Z,13.74
2018-11-07T03:49:06.577Z,13.79
2018-11-07T03:51:34.887Z,13.89
2018-11-07T03:54:03.274Z,13.93
2018-11-07T03:56:31.678Z,13.88
2018-11-07T03:58:59.944Z,13.97
2018-11-07T04:01:27.687Z,14.04
2018-11-07T04:03:55.503Z,13.95
2018-11-07T04:06:23.279Z,13.88
2018-11-07T04:08:51.016Z,13.92
2018-11-07T04:11:19.291Z,13.85
2018-11-07T04:13:47.487Z,13.69
2018-11-07T04:16:15.628Z,13.65
2018-11-07T04:18:43.890Z,13.67
2018-11-07T04:21:12.368Z,13.67
2018-11-07T04:23:40.672Z,13.48
2018-11-07T04:26:09.127Z,13.38
2018-11-07T04:28:37.383Z,13.11
2018-11-07T04:31:05.849Z,12.86
2018-11-07T04:33:34.175Z,12.82
2018-11-07T04:36:02.444Z,12.64
2018-11-07T04:38:30.702Z,12.78
2018-11-07T04:40:59.012Z,12.89
2018-11-07T04:43:27.248Z,12.96
2018-11-07T04:45:55.478Z,13.05
2018-11-07T04:48:23.639Z,13.06
2018-11-07T04:50:51.838Z,12.71
2018-11-07T04:53:19.720Z,12.78
2018-11-07T04:55:47.490Z,12.93
2018-11-07T04:58:15.264Z,12.83
2018-11-07T05:00:43.061Z,12.81
2018-11-07T05:03:10.860Z,12.90
2018-11-07T05:05:38.547Z,13.08
2018-11-07T05:08:06.291Z,13.03
2018-11-07T05:10:34.063Z,13.05
2018-11-07T05:13:01.770Z,13.00
2018-11-07T05:15:29.511Z,13.16
2018-11-07T05:17:57.282Z,13.28
2018-11-07T05:20:24.989Z,13.35
2018-11-07T05:22:52.730Z,13.18
2018-11-07T05:25:20.533Z,13.13
2018-11-07T05:27:48.222Z,13.24
2018-11-07T05:30:15.969Z,13.17
2018-11-07T05:32:43.792Z,13.19
2018-11-07T05:35:11.532Z,13.45
2018-11-07T05:37:39.262Z,13.54
2018-11-07T05:40:07.097Z,13.59
2018-11-07T05:42:34.841Z,13.55
2018-11-07T05:45:02.575Z,13.79
2018-11-07T05:47:30.337Z,13.96
2018-11-07T05:49:58.107Z,14.07
2018-11-07T05:52:25.911Z,14.15
2018-11-07T05:54:53.782Z,14.14
2018-11-07T05:57:21.518Z,14.01
2018-11-07T05:59:49.287Z,13.45
2018-11-07T06:02:17.056Z,13.48
2018-11-07T06:04:44.858Z,13.75
2018-11-07T06:07:12.671Z,13.53
2018-11-07T06:09:40.472Z,13.19
2018-11-07T06:12:08.306Z,13.04
2018-11-07T06:14:36.079Z,13.25
2018-11-07T06:17:04.038Z,13.00
2018-11-07T06:19:31.825Z,13.08
2018-11-07T06:22:00.260Z,12.85
2018-11-07T06:24:28.855Z,13.05
2018-11-07T06:26:57.022Z,13.26
2018-11-07T06:29:25.600Z,13.50
2018-11-07T06:31:53.823Z,13.44
2018-11-07T06:34:22.035Z,13.41
2018-11-07T06:36:50.523Z,13.57
2018-11-07T06:39:18.610Z,13.70
2018-11-07T06:41:46.324Z,13.88
2018-11-07T06:44:14.091Z,13.56
2018-11-07T06:46:41.852Z,13.83
2018-11-07T06:49:09.611Z,13.78
2018-11-07T06:51:37.403Z,13.72
2018-11-07T06:54:05.286Z,13.56
2018-11-07T06:56:33.123Z,13.78
2018-11-07T06:59:00.827Z,13.26
2018-11-07T07:01:28.670Z,13.28
2018-11-07T07:03:56.448Z,13.84
2018-11-07T07:06:24.375Z,13.91
2018-11-07T07:08:52.278Z,14.27
2018-11-07T07:11:20.007Z,14.25
2018-11-07T07:13:47.771Z,14.39
2018-11-07T07:16:15.583Z,14.78
2018-11-07T07:18:43.364Z,14.73
2018-11-07T07:21:11.103Z,15.06
2018-11-07T07:23:38.867Z,14.62
2018-11-07T07:26:06.679Z,15.05
2018-11-07T07:28:34.416Z,15.09
2018-11-07T07:31:02.192Z,14.94
2018-11-07T07:33:29.946Z,14.49
2018-11-07T07:35:57.751Z,14.51
2018-11-07T07:38:25.564Z,14.65
2018-11-07T07:40:53.448Z,15.03
2018-11-07T07:43:21.209Z,15.17
2018-11-07T07:45:49.035Z,15.64
2018-11-07T07:48:16.838Z,15.48
2018-11-07T07:50:44.544Z,15.73
2018-11-07T07:53:12.431Z,15.95
2018-11-07T07:55:40.192Z,16.32
2018-11-07T07:58:07.974Z,16.17
2018-11-07T08:00:35.770Z,16.18
2018-11-07T08:03:03.543Z,16.41
2018-11-07T08:05:31.307Z,17.09
2018-11-07T08:07:59.276Z,17.17
2018-11-07T08:10:27.011Z,16.39
2018-11-07T08:12:54.793Z,16.57
2018-11-07T08:15:22.572Z,16.78
2018-11-07T08:17:50.306Z,17.04
2018-11-07T08:20:18.557Z,17.17
2018-11-07T08:22:47.011Z,17.25
2018-11-07T08:25:14.765Z,17.04
2018-11-07T08:27:42.600Z,17.16
2018-11-07T08:30:12.700Z,17.46
2018-11-07T08:32:40.732Z,17.23
2018-11-07T08:35:09.827Z,17.89
2018-11-07T08:37:37.727Z,18.15
2018-11-07T08:40:11.575Z,17.77
2018-11-07T08:42:39.701Z,17.12
2018-11-07T08:45:08.328Z,17.40
2018-11-07T08:47:36.042Z,16.27
2018-11-07T08:50:04.645Z,16.35
2018-11-07T08:52:32.451Z,17.24
2018-11-07T08:55:00.215Z,16.82
2018-11-07T08:57:27.979Z,16.62
2018-11-07T08:59:55.844Z,17.32
2018-11-07T09:02:23.604Z,17.41
2018-11-07T09:04:51.415Z,18.18
2018-11-07T09:07:19.183Z,18.58
2018-11-07T09:09:46.927Z,17.93
2018-11-07T09:12:14.824Z,16.92
2018-11-07T09:14:42.488Z,17.53
2018-11-07T09:17:10.251Z,18.20
2018-11-07T09:19:38.042Z,18.32
2018-11-07T09:22:06.005Z,18.20
2018-11-07T09:24:33.918Z,17.66
2018-11-07T09:27:01.697Z,17.43
2018-11-07T09:29:29.445Z,17.77
2018-11-07T09:31:57.198Z,17.43
2018-11-07T09:34:24.970Z,17.71
2018-11-07T09:36:52.729Z,18.15
2018-11-07T09:39:20.487Z,18.71
2018-11-07T09:41:48.311Z,18.87
2018-11-07T09:44:16.100Z,19.25
2018-11-07T09:46:43.888Z,19.52
2018-11-07T09:49:11.762Z,19.56
2018-11-07T09:51:39.469Z,19.79
2018-11-07T09:54:07.240Z,19.43
2018-11-07T09:56:35.062Z,19.45
2018-11-07T09:59:02.824Z,19.46
2018-11-07T10:01:30.599Z,20.14
2018-11-07T10:03:58.351Z,19.93
2018-11-07T10:06:26.106Z,19.72
2018-11-07T10:08:53.901Z,19.51
2018-11-07T10:11:21.680Z,19.38
2018-11-07T10:13:49.370Z,19.43
2018-11-07T10:16:17.139Z,19.49
2018-11-07T10:18:44.975Z,19.80
2018-11-07T10:21:12.791Z,19.36
2018-11-07T10:23:40.499Z,19.00
2018-11-07T10:26:08.394Z,19.38
2018-11-07T10:28:36.346Z,20.05
2018-11-07T10:31:04.252Z,20.20
2018-11-07T10:33:32.008Z,20.12
2018-11-07T10:35:59.775Z,20.29
2018-11-07T10:38:27.654Z,20.72
2018-11-07T10:40:55.420Z,21.13
2018-11-07T10:43:23.151Z,20.91
2018-11-07T10:45:51.102Z,20.14
2018-11-07T10:48:18.843Z,20.13
2018-11-07T10:50:46.672Z,20.90
2018-11-07T10:53:14.432Z,19.86
2018-11-07T10:55:42.251Z,18.98
2018-11-07T10:58:09.974Z,18.68
2018-11-07T11:00:43.361Z,18.72
2018-11-07T11:03:16.518Z,19.07
2018-11-07T11:05:44.322Z,18.13
2018-11-07T11:08:12.062Z,18.16
2018-11-07T11:10:39.886Z,18.78
2018-11-07T11:13:07.739Z,18.52
2018-11-07T11:15:35.443Z,18.09
2018-11-07T11:18:03.175Z,18.96
2018-11-07T11:20:30.970Z,19.04
2018-11-07T11:22:58.715Z,19.32
2018-11-07T11:25:26.451Z,19.77
2018-11-07T11:27:54.243Z,20.14
2018-11-07T11:30:21.978Z,19.99
2018-11-07T11:32:49.651Z,20.03
2018-11-07T11:35:17.541Z,19.90
2018-11-07T11:37:45.230Z,20.18
2018-11-07T11:40:14.160Z,20.78
2018-11-07T11:42:42.737Z,20.76
2018-11-07T11:45:12.245Z,20.58
2018-11-07T11:47:40.548Z,20.71
2018-11-07T11:50:11.036Z,20.94
2018-11-07T11:52:38.948Z,21.00
2018-11-07T11:55:06.691Z,20.32
2018-11-07T11:57:34.466Z,20.11
2018-11-07T12:00:02.573Z,20.24
2018-11-07T12:02:30.084Z,19.82
2018-11-07T12:04:57.852Z,19.80
2018-11-07T12:07:25.587Z,19.01
2018-11-07T12:09:53.543Z,19.23
2018-11-07T12:12:21.351Z,19.01
2018-11-07T12:14:49.120Z,18.84
2018-11-07T12:17:16.899Z,19.09
2018-11-07T12:19:44.651Z,18.34
2018-11-07T12:22:12.413Z,18.33
2018-11-07T12:24:40.192Z,18.07
2018-11-07T12:27:07.976Z,17.87
2018-11-07T12:29:35.727Z,17.64
2018-11-07T12:32:03.753Z,17.99
2018-11-07T12:34:31.491Z,18.28
2018-11-07T12:36:59.642Z,18.88
2018-11-07T12:39:27.346Z,18.09
2018-11-07T12:41:55.183Z,17.82
2018-11-07T12:44:22.888Z,18.02
2018-11-07T12:46:50.613Z,18.14
2018-11-07T12:49:18.451Z,18.16
2018-11-07T12:51:46.180Z,18.56
2018-11-07T12:54:13.970Z,18.71
2018-11-07T12:56:41.796Z,18.78
2018-11-07T12:59:09.515Z,18.53
2018-11-07T13:01:37.266Z,18.44
2018-11-07T13:04:05.179Z,18.48
2018-11-07T13:06:32.931Z,18.46
2018-11-07T13:09:00.667Z,18.68
2018-11-07T13:11:28.489Z,18.90
2018-11-07T13:13:56.196Z,18.77
2018-11-07T13:16:23.956Z,18.59
2018-11-07T13:18:51.751Z,17.78
2018-11-07T13:21:19.479Z,17.55
2018-11-07T13:23:47.256Z,17.69
2018-11-07T13:26:15.092Z,17.95
2018-11-07T13:28:42.903Z,17.79
2018-11-07T13:31:11.109Z,17.38
2018-11-07T13:33:39.978Z,17.28
2018-11-07T13:36:08.364Z,17.12
2018-11-07T13:38:36.887Z,17.04
2018-11-07T13:41:05.630Z,16.76
2018-11-07T13:43:33.922Z,17.02
2018-11-07T13:46:02.219Z,17.13
2018-11-07T13:48:30.678Z,17.25
2018-11-07T13:50:58.763Z,16.90
2018-11-07T13:53:27.059Z,16.90
2018-11-07T13:55:55.319Z,16.78
2018-11-07T13:58:23.623Z,16.65
2018-11-07T14:00:51.903Z,16.81
2018-11-07T14:03:20.056Z,16.41
2018-11-07T14:05:48.493Z,16.23
2018-11-07T14:08:16.160Z,16.19
2018-11-07T14:10:43.932Z,16.11
2018-11-07T14:13:11.727Z,16.41
2018-11-07T14:15:39.517Z,16.53
2018-11-07T14:18:07.321Z,16.35
2018-11-07T14:20:35.161Z,16.20
2018-11-07T14:23:02.896Z,16.02
2018-11-07T14:25:30.667Z,16.19
2018-11-07T14:27:58.569Z,16.34
2018-11-07T14:30:26.298Z,16.37
2018-11-07T14:32:59.224Z,16.09
2018-11-07T14:35:27.095Z,15.85
2018-11-07T14:37:55.498Z,15.80
2018-11-07T14:40:23.398Z,15.80
2018-11-07T14:42:51.151Z,15.74
2018-11-07T14:45:18.882Z,15.68
2018-11-07T14:47:46.762Z,15.84
2018-11-07T14:50:14.684Z,15.95
2018-11-07T14:52:42.872Z,15.93
2018-11-07T14:55:11.567Z,16.16
2018-11-07T14:57:39.379Z,16.04
2018-11-07T15:00:10.559Z,15.96
2018-11-07T15:02:39.007Z,15.78
2018-11-07T15:05:08.224Z,15.84
2018-11-07T15:07:36.087Z,15.50
2018-11-07T15:10:05.011Z,15.59
2018-11-07T15:12:33.479Z,15.58
2018-11-07T15:15:01.724Z,15.86
2018-11-07T15:17:30.079Z,15.77
2018-11-07T15:19:58.195Z,15.88
2018-11-07T15:22:26.581Z,15.76
2018-11-07T15:24:54.957Z,15.75
2018-11-07T15:27:23.331Z,15.76
2018-11-07T15:29:51.462Z,15.83
2018-11-07T15:32:19.557Z,15.74
2018-11-07T15:34:48.044Z,15.66
2018-11-07T15:37:16.327Z,15.33
2018-11-07T15:39:44.788Z,15.44
2018-11-07T15:42:13.259Z,15.70
2018-11-07T15:44:41.444Z,15.38
2018-11-07T15:47:09.387Z,15.27
2018-11-07T15:49:41.208Z,15.19
2018-11-07T15:52:09.595Z,15.27
2018-11-07T15:54:38.107Z,15.24
2018-11-07T15:57:06.339Z,15.12
2018-11-07T15:59:34.867Z,15.09
2018-11-07T16:02:03.143Z,14.85
2018-11-07T16:04:31.575Z,14.95
2018-11-07T16:06:59.746Z,14.98
2018-11-07T16:09:27.726Z,14.86
2018-11-07T16:11:55.992Z,14.85
2018-11-07T16:14:24.582Z,15.00
2018-11-07T16:16:52.999Z,14.99
2018-11-07T16:19:21.288Z,14.86
2018-11-07T16:21:49.452Z,15.07
2018-11-07T16:24:17.791Z,15.12
2018-11-07T16:26:45.905Z,14.98
2018-11-07T16:29:14.367Z,14.90
2018-11-07T16:31:42.467Z,15.02
2018-11-07T16:34:10.685Z,15.09
2018-11-07T16:36:39.029Z,15.08
2018-11-07T16:39:08.915Z,15.18
2018-11-07T16:41:37.641Z,15.22
2018-11-07T16:44:05.675Z,15.37
2018-11-07T16:46:33.435Z,15.52
2018-11-07T16:49:01.782Z,15.48
2018-11-07T16:51:30.035Z,15.47
2018-11-07T16:53:58.352Z,15.33
2018-11-07T16:56:26.587Z,15.03
2018-11-07T16:58:55.095Z,14.83
2018-11-07T17:01:23.143Z,14.52
2018-11-07T17:03:51.418Z,14.37
2018-11-07T17:06:20.073Z,14.36
2018-11-07T17:08:48.433Z,14.26
2018-11-07T17:11:16.752Z,14.08
2018-11-07T17:13:45.218Z,14.19
2018-11-07T17:16:13.389Z,14.38
2018-11-07T17:18:41.472Z,14.50
2018-11-07T17:21:09.844Z,14.64
2018-11-07T17:23:37.910Z,14.69
2018-11-07T17:26:06.316Z,14.58
2018-11-07T17:28:34.596Z,14.55
2018-11-07T17:31:03.136Z,14.64
2018-11-07T17:33:31.376Z,14.55
2018-11-07T17:35:59.876Z,14.66
2018-11-07T17:38:28.261Z,14.73
2018-11-07T17:40:56.393Z,14.75
2018-11-07T17:43:24.900Z,14.72
2018-11-07T17:45:53.164Z,14.64
2018-11-07T17:48:21.801Z,14.70
2018-11-07T17:50:50.135Z,14.88
2018-11-07T17:53:18.819Z,14.98
2018-11-07T17:55:47.063Z,15.10
2018-11-07T17:58:15.575Z,15.26
2018-11-07T18:00:43.811Z,15.26
2018-11-07T18:03:12.306Z,15.20
2018-11-07T18:05:40.623Z,15.24
2018-11-07T18:08:09.103Z,15.24
2018-11-07T18:10:37.340Z,15.31
2018-11-07T18:13:05.860Z,15.40
2018-11-07T18:15:36.420Z,15.51
2018-11-07T18:18:04.829Z,15.45
2018-11-07T18:20:33.335Z,15.34
2018-11-07T18:23:01.571Z,15.28
2018-11-07T18:25:30.095Z,15.26
2018-11-07T18:27:58.431Z,15.37
2018-11-07T18:30:26.588Z,15.49
2018-11-07T18:32:54.971Z,15.61
2018-11-07T18:35:22.960Z,15.58
2018-11-07T18:37:50.583Z,15.50
2018-11-07T18:40:19.567Z,15.47
2018-11-07T18:42:47.395Z,15.41
2018-11-07T18:45:15.560Z,15.47
2018-11-07T18:47:45.096Z,15.47
2018-11-07T18:50:14.443Z,15.50
2018-11-07T18:52:42.614Z,15.34
2018-11-07T18:55:11.709Z,15.49
2018-11-07T18:57:39.622Z,15.52
2018-11-07T19:00:09.875Z,15.64
2018-11-07T19:02:37.660Z,15.73
2018-11-07T19:05:05.932Z,15.49
2018-11-07T19:07:35.304Z,15.39
2018-11-07T19:10:03.199Z,15.48
2018-11-07T19:12:31.007Z,15.63
2018-11-07T19:14:58.829Z,15.58
2018-11-07T19:17:26.571Z,15.59
2018-11-07T19:19:54.392Z,15.50
2018-11-07T19:22:22.121Z,15.51
2018-11-07T19:24:49.899Z,15.32
2018-11-07T19:27:17.803Z,15.18
2018-11-07T19:29:45.619Z,15.14
2018-11-07T19:32:13.791Z,15.22
2018-11-07T19:34:41.647Z,15.32
2018-11-07T19:37:09.470Z,15.46
2018-11-07T19:39:37.625Z,15.54
2018-11-07T19:42:05.502Z,15.52
2018-11-07T19:44:33.306Z,15.26
2018-11-07T19:47:01.120Z,14.83
2018-11-07T19:49:28.948Z,15.08
2018-11-07T19:51:56.823Z,15.24
2018-11-07T19:54:24.795Z,15.14
2018-11-07T19:56:52.727Z,15.21
2018-11-07T19:59:20.564Z,15.29
2018-11-07T20:01:48.928Z,15.41
2018-11-07T20:04:17.175Z,15.43
2018-11-07T20:06:45.335Z,15.36
2018-11-07T20:09:13.212Z,15.36
2018-11-07T20:11:40.999Z,15.40
2018-11-07T20:14:08.748Z,15.41
2018-11-07T20:16:36.599Z,15.42
2018-11-07T20:19:04.474Z,15.17
2018-11-07T20:21:32.280Z,15.00
2018-11-07T20:24:00.222Z,14.84
2018-11-07T20:26:28.110Z,14.84
2018-11-07T20:28:56.013Z,14.82
2018-11-07T20:31:23.843Z,14.79
2018-11-07T20:33:51.621Z,14.92
2018-11-07T20:36:19.432Z,14.94
2018-11-07T20:38:47.503Z,14.99
2018-11-07T20:41:15.635Z,14.98
2018-11-07T20:43:44.121Z,15.15
2018-11-07T20:46:12.378Z,15.19
2018-11-07T20:48:41.170Z,15.16
2018-11-07T20:51:09.143Z,15.24
2018-11-07T20:53:37.716Z,15.23
2018-11-07T20:56:06.129Z,15.22
2018-11-07T20:58:34.478Z,15.25
2018-11-07T21:01:02.899Z,15.31
2018-11-07T21:03:31.154Z,15.26
2018-11-07T21:05:59.639Z,15.19
2018-11-07T21:08:27.903Z,15.08
2018-11-07T21:10:56.388Z,15.01
2018-11-07T21:13:24.447Z,14.95
2018-11-07T21:15:52.908Z,14.90
2018-11-07T21:18:21.183Z,14.94
2018-11-07T21:20:49.659Z,14.88
2018-11-07T21:23:17.951Z,14.82
2018-11-07T21:25:46.452Z,14.83
2018-11-07T21:28:14.666Z,14.82
2018-11-07T21:30:42.979Z,14.87
2018-11-07T21:33:11.279Z,14.87
2018-11-07T21:35:39.732Z,14.90
2018-11-07T21:38:08.019Z,14.79
2018-11-07T21:40:36.503Z,14.59
2018-11-07T21:43:04.809Z,14.48
2018-11-07T21:45:33.242Z,14.55
2018-11-07T21:48:01.016Z,14.64
2018-11-07T21:50:29.160Z,14.53
2018-11-07T21:52:57.416Z,14.63
2018-11-07T21:55:26.055Z,14.56
2018-11-07T21:57:54.374Z,14.52
2018-11-07T22:00:22.519Z,14.61
2018-11-07T22:02:50.373Z,14.70
2018-11-07T22:05:18.576Z,14.79
2018-11-07T22:07:46.360Z,14.66
2018-11-07T22:10:15.464Z,14.61
2018-11-07T22:12:43.220Z,14.72
2018-11-07T22:15:11.003Z,14.85
2018-11-07T22:17:38.853Z,14.85
2018-11-07T22:20:08.967Z,14.77
2018-11-07T22:22:37.140Z,14.80
2018-11-07T22:25:05.491Z,14.82
2018-11-07T22:27:33.752Z,14.41
2018-11-07T22:30:02.320Z,14.39
2018-11-07T22:32:30.508Z,14.48
2018-11-07T22:34:58.939Z,14.54
2018-11-07T22:37:27.095Z,14.20
2018-11-07T22:39:55.508Z,14.22
2018-11-07T22:42:23.811Z,14.24
2018-11-07T22:44:52.265Z,14.09
2018-11-07T22:47:20.584Z,14.25
2018-11-07T22:49:48.867Z,14.35
2018-11-07T22:52:17.098Z,14.40
2018-11-07T22:54:45.401Z,14.33
2018-11-07T22:57:13.876Z,14.35
2018-11-07T22:59:42.125Z,14.29
2018-11-07T23:02:10.668Z,14.02
2018-11-07T23:04:38.816Z,14.06
2018-11-07T23:07:07.170Z,14.23
2018-11-07T23:09:34.908Z,14.35
2018-11-07T23:12:03.325Z,14.39
2018-11-07T23:14:31.548Z,14.24
2018-11-07T23:16:59.699Z,13.99
2018-11-07T23:19:28.260Z,14.01
2018-11-07T23:21:56.416Z,14.02
2018-11-07T23:24:24.884Z,13.91
2018-11-07T23:26:53.176Z,14.07
2018-11-07T23:29:21.673Z,14.23
2018-11-07T23:31:49.989Z,14.28
2018-11-07T23:34:18.396Z,14.24
2018-11-07T23:36:46.655Z,14.19
2018-11-07T23:39:14.799Z,14.21
2018-11-07T23:41:43.219Z,14.26
2018-11-07T23:44:11.492Z,14.34
2018-11-07T23:46:39.996Z,14.38
2018-11-07T23:49:08.250Z,14.38
2018-11-07T23:51:41.295Z,14.49
2018-11-07T23:54:09.607Z,14.49
2018-11-07T23:56:37.806Z,14.48
2018-11-07T23:59:06.266Z,14.52
